createdAt,value
2022-11-06T00:01:47.677Z,68.37
2022-11-06T00:04:15.176Z,68.60
2022-11-06T00:06:48.774Z,68.55
2022-11-06T00:09:18.552Z,68.56
2022-11-06T00:11:46.469Z,67.78
2022-11-06T00:14:14.040Z,68.29
2022-11-06T00:16:42.744Z,68.02
2022-11-06T00:19:10.695Z,68.62
2022-11-06T00:21:39.109Z,68.94
2022-11-06T00:24:09.697Z,68.21
2022-11-06T00:26:37.985Z,68.82
2022-11-06T00:29:07.263Z,69.24
2022-11-06T00:31:37.611Z,69.12
2022-11-06T00:34:07.686Z,69.33
2022-11-06T00:36:35.903Z,68.92
2022-11-06T00:39:04.484Z,69.10
2022-11-06T00:41:33.314Z,69.38
2022-11-06T00:44:02.656Z,69.14
2022-11-06T00:46:30.753Z,68.97
2022-11-06T00:48:58.990Z,69.04
2022-11-06T00:51:28.560Z,69.13
2022-11-06T00:53:57.779Z,69.30
2022-11-06T00:56:26.104Z,69.74
2022-11-06T00:58:56.169Z,69.55
2022-11-06T01:01:26.351Z,70.11
2022-11-06T01:03:56.203Z,70.11
2022-11-06T01:06:26.710Z,69.37
2022-11-06T01:08:54.340Z,69.79
2022-11-06T01:11:23.707Z,69.71
2022-11-06T01:13:54.056Z,69.33
2022-11-06T01:16:23.868Z,69.38
2022-11-06T01:18:52.808Z,70.20
2022-11-06T01:21:22.712Z,70.14
2022-11-06T01:23:54.085Z,70.16
2022-11-06T01:26:37.372Z,69.77
2022-11-06T01:29:07.848Z,69.40
2022-11-06T01:31:37.160Z,69.71
2022-11-06T01:34:05.590Z,69.63
2022-11-06T01:36:34.057Z,69.98
2022-11-06T01:39:06.777Z,69.48
2022-11-06T01:41:36.777Z,69.86
2022-11-06T01:44:09.698Z,69.98
2022-11-06T01:46:38.771Z,69.90
2022-11-06T01:49:09.524Z,69.71
2022-11-06T01:51:41.319Z,70.37
2022-11-06T01:54:11.455Z,70.68
2022-11-06T01:56:39.954Z,70.44
2022-11-06T01:59:14.470Z,70.25
2022-11-06T02:01:43.724Z,70.44
2022-11-06T02:04:17.995Z,70.40
2022-11-06T02:07:03.519Z,70.47
2022-11-06T02:09:33.050Z,70.81
2022-11-06T02:12:06.971Z,70.29
2022-11-06T02:14:41.725Z,70.46
2022-11-06T02:17:20.391Z,70.22
2022-11-06T02:20:01.805Z,70.38
2022-11-06T02:22:56.525Z,70.39
2022-11-06T02:25:38.173Z,70.99
2022-11-06T02:28:23.859Z,71.00
2022-11-06T02:31:05.654Z,71.21
2022-11-06T02:33:37.701Z,70.46
2022-11-06T02:36:36.477Z,71.30
2022-11-06T02:39:13.591Z,70.93
2022-11-06T02:41:44.605Z,72.34
2022-11-06T02:44:30.634Z,71.51
2022-11-06T02:47:06.357Z,71.94
2022-11-06T02:49:39.278Z,71.47
2022-11-06T02:52:12.577Z,71.86
2022-11-06T02:54:47.359Z,71.58
2022-11-06T02:57:18.533Z,71.47
2022-11-06T02:59:53.319Z,71.00
2022-11-06T03:02:26.821Z,71.66
2022-11-06T03:04:59.317Z,71.48
2022-11-06T03:07:35.582Z,71.84
2022-11-06T03:10:03.772Z,71.13
2022-11-06T03:12:34.329Z,71.21
2022-11-06T03:18:30.773Z,71.30
2022-11-06T03:21:02.843Z,71.30
2022-11-06T03:23:37.030Z,71.40
2022-11-06T03:26:13.881Z,71.78
2022-11-06T03:28:50.187Z,71.43
2022-11-06T03:31:24.589Z,71.67
2022-11-06T03:33:56.324Z,72.16
2022-11-06T03:36:27.656Z,72.13
2022-11-06T03:39:00.400Z,71.87
2022-11-06T03:41:34.270Z,72.12
2022-11-06T03:44:04.203Z,72.59
2022-11-06T03:46:37.580Z,72.23
2022-11-06T03:49:10.387Z,72.18
2022-11-06T03:51:45.294Z,72.50
2022-11-06T03:54:19.508Z,72.63
2022-11-06T03:56:54.358Z,72.68
2022-11-06T03:59:25.418Z,72.23
2022-11-06T04:01:58.348Z,72.95
2022-11-06T04:04:31.991Z,72.67
2022-11-06T04:07:06.451Z,72.71
2022-11-06T04:09:53.862Z,72.89
2022-11-06T04:12:43.258Z,72.68
2022-11-06T04:15:14.112Z,73.08
2022-11-06T04:17:43.125Z,72.78
2022-11-06T04:20:34.969Z,73.77
2022-11-06T04:23:13.401Z,74.03
2022-11-06T04:26:12.460Z,73.51
2022-11-06T04:28:50.026Z,73.25
2022-11-06T04:31:26.585Z,73.19
2022-11-06T04:34:03.605Z,73.78
2022-11-06T04:36:49.547Z,74.52
2022-11-06T04:39:26.000Z,73.60
2022-11-06T04:41:59.488Z,73.84
2022-11-06T04:44:32.701Z,73.99
2022-11-06T04:47:03.054Z,73.52
2022-11-06T04:49:35.049Z,73.75
2022-11-06T04:52:05.593Z,73.57
2022-11-06T04:54:34.274Z,74.05
2022-11-06T04:57:03.278Z,74.28
2022-11-06T04:59:35.966Z,73.51
2022-11-06T05:02:04.319Z,73.25
2022-11-06T05:04:34.543Z,73.40
2022-11-06T05:07:02.436Z,73.45
2022-11-06T05:09:30.208Z,74.57
2022-11-06T05:11:58.153Z,74.55
2022-11-06T05:14:25.832Z,73.54
2022-11-06T05:16:53.770Z,73.72
2022-11-06T05:19:21.476Z,73.90
2022-11-06T05:22:08.677Z,73.94
2022-11-06T05:24:36.820Z,74.09
2022-11-06T05:27:04.693Z,74.49
2022-11-06T05:29:32.204Z,74.07
2022-11-06T05:31:59.766Z,74.07
2022-11-06T05:34:27.306Z,74.47
2022-11-06T05:36:56.089Z,74.67
2022-11-06T05:39:23.672Z,73.84
2022-11-06T05:41:51.189Z,74.03
2022-11-06T05:44:18.861Z,73.67
2022-11-06T05:46:49.266Z,74.36
2022-11-06T05:49:17.024Z,73.79
2022-11-06T05:51:44.680Z,74.53
2022-11-06T05:54:13.631Z,74.36
2022-11-06T05:56:41.145Z,74.07
2022-11-06T05:59:08.737Z,74.47
2022-11-06T06:01:36.340Z,73.84
2022-11-06T06:04:04.990Z,73.92
2022-11-06T06:06:32.620Z,74.27
2022-11-06T06:09:00.092Z,74.35
2022-11-06T06:11:29.003Z,73.98
2022-11-06T06:13:56.569Z,73.75
2022-11-06T06:16:24.254Z,74.32
2022-11-06T06:18:52.180Z,74.78
2022-11-06T06:21:19.796Z,74.27
2022-11-06T06:23:47.421Z,74.33
2022-11-06T06:26:15.017Z,74.08
2022-11-06T06:28:43.949Z,74.09
2022-11-06T06:31:11.906Z,74.39
2022-11-06T06:33:39.610Z,74.37
2022-11-06T06:36:08.325Z,74.08
2022-11-06T06:38:36.081Z,73.91
2022-11-06T06:41:04.059Z,74.32
2022-11-06T06:43:58.425Z,74.48
2022-11-06T06:46:26.557Z,74.76
2022-11-06T06:48:55.106Z,74.60
2022-11-06T06:51:24.429Z,74.75
2022-11-06T06:53:52.634Z,75.15
2022-11-06T06:56:20.501Z,74.73
2022-11-06T06:58:48.478Z,74.87
2022-11-06T07:01:18.127Z,74.86
2022-11-06T07:03:45.911Z,74.46
2022-11-06T07:06:13.962Z,75.16
2022-11-06T07:08:41.544Z,74.55
2022-11-06T07:11:10.256Z,74.87
2022-11-06T07:13:37.942Z,75.17
2022-11-06T07:16:06.602Z,74.95
2022-11-06T07:18:37.310Z,75.12
2022-11-06T07:21:06.233Z,75.49
2022-11-06T07:23:35.533Z,75.57
2022-11-06T07:26:04.702Z,75.77
2022-11-06T07:28:32.531Z,75.63
2022-11-06T07:31:00.860Z,75.65
2022-11-06T07:33:28.597Z,76.13
2022-11-06T07:35:57.540Z,76.21
2022-11-06T07:38:25.089Z,75.80
2022-11-06T07:40:52.647Z,75.92
2022-11-06T07:43:24.603Z,75.69
2022-11-06T07:45:52.345Z,75.46
2022-11-06T07:48:20.045Z,75.72
2022-11-06T07:50:48.803Z,76.13
2022-11-06T07:53:17.736Z,76.14
2022-11-06T07:55:51.119Z,76.70
2022-11-06T07:58:19.671Z,75.59
2022-11-06T08:00:49.498Z,76.09
2022-11-06T08:03:20.978Z,76.70
2022-11-06T08:05:50.673Z,76.49
2022-11-06T08:08:19.923Z,76.30
2022-11-06T08:10:47.782Z,76.35
2022-11-06T08:13:17.976Z,76.05
2022-11-06T08:15:46.102Z,75.77
2022-11-06T08:18:14.030Z,76.09
2022-11-06T08:20:42.107Z,76.24
2022-11-06T08:23:14.422Z,76.30
2022-11-06T08:25:44.011Z,75.82
2022-11-06T08:28:13.504Z,75.49
2022-11-06T08:30:42.662Z,75.95
2022-11-06T08:33:10.575Z,75.66
2022-11-06T08:35:39.285Z,75.82
2022-11-06T08:38:07.165Z,75.96
2022-11-06T08:40:53.742Z,75.12
2022-11-06T08:43:27.858Z,75.71
2022-11-06T08:45:56.714Z,75.47
2022-11-06T08:48:25.068Z,75.74
2022-11-06T08:50:56.505Z,75.78
2022-11-06T08:53:26.934Z,75.48
2022-11-06T08:55:58.364Z,75.40
2022-11-06T08:58:27.258Z,75.33
2022-11-06T09:00:55.695Z,74.94
2022-11-06T09:03:26.882Z,75.14
2022-11-06T09:05:55.259Z,74.85
2022-11-06T09:08:30.662Z,74.92
2022-11-06T09:11:00.575Z,74.74
2022-11-06T09:13:34.092Z,74.65
2022-11-06T09:16:10.081Z,74.73
2022-11-06T09:18:40.903Z,74.37
2022-11-06T09:21:09.386Z,74.38
2022-11-06T09:26:34.616Z,74.29
2022-11-06T09:29:04.596Z,74.19
2022-11-06T09:31:32.819Z,73.80
2022-11-06T09:34:01.204Z,73.81
2022-11-06T09:36:29.974Z,73.70
2022-11-06T09:38:58.639Z,73.28
2022-11-06T09:41:36.359Z,73.03
2022-11-06T09:44:24.161Z,72.97
2022-11-06T09:46:53.380Z,72.59
2022-11-06T09:49:28.907Z,72.21
2022-11-06T09:52:05.619Z,72.21
2022-11-06T09:54:41.229Z,72.09
2022-11-06T09:57:14.781Z,72.14
2022-11-06T09:59:45.991Z,71.26
2022-11-06T10:02:28.337Z,70.75
2022-11-06T10:05:05.224Z,71.23
2022-11-06T10:07:37.140Z,70.45
2022-11-06T10:10:07.868Z,69.69
2022-11-06T10:12:48.019Z,69.55
2022-11-06T10:15:23.665Z,66.51
2022-11-06T10:17:57.813Z,67.75
2022-11-06T10:20:33.255Z,67.99
2022-11-06T10:23:06.660Z,66.42
2022-11-06T10:25:46.783Z,64.47
2022-11-06T10:28:29.610Z,63.56
2022-11-06T10:31:09.315Z,63.87
2022-11-06T10:33:53.353Z,62.71
2022-11-06T10:36:25.682Z,62.03
2022-11-06T10:38:56.214Z,62.29
2022-11-06T10:41:27.509Z,61.74
2022-11-06T10:44:01.397Z,60.92
2022-11-06T10:46:36.653Z,62.29
2022-11-06T10:49:13.711Z,61.84
2022-11-06T10:52:04.573Z,60.63
2022-11-06T10:54:50.672Z,57.60
2022-11-06T10:57:31.344Z,58.83
2022-11-06T10:59:59.780Z,57.99
2022-11-06T11:02:33.083Z,59.16
2022-11-06T11:05:00.983Z,57.74
2022-11-06T11:07:31.959Z,57.66
2022-11-06T11:09:59.936Z,56.69
2022-11-06T11:12:30.554Z,54.85
2022-11-06T11:15:14.434Z,53.81
2022-11-06T11:17:44.601Z,55.24
2022-11-06T11:20:31.794Z,55.07
2022-11-06T11:23:08.181Z,51.33
2022-11-06T11:25:36.309Z,54.25
2022-11-06T11:28:05.400Z,52.25
2022-11-06T11:30:34.244Z,52.33
2022-11-06T11:33:24.628Z,52.55
2022-11-06T11:35:53.993Z,51.38
2022-11-06T11:41:40.684Z,49.68
2022-11-06T11:44:17.104Z,50.64
2022-11-06T11:46:52.321Z,51.04
2022-11-06T11:49:38.975Z,49.76
2022-11-06T11:52:14.250Z,50.46
2022-11-06T11:54:41.878Z,50.25
2022-11-06T11:57:19.079Z,50.89
2022-11-06T11:59:50.298Z,50.78
2022-11-06T12:02:26.748Z,49.19
2022-11-06T12:04:59.944Z,49.43
2022-11-06T12:07:30.103Z,48.23
2022-11-06T12:09:59.387Z,48.92
2022-11-06T12:12:32.821Z,48.55
2022-11-06T12:15:10.308Z,47.84
2022-11-06T12:17:40.797Z,47.94
2022-11-06T12:20:17.155Z,47.02
2022-11-06T12:22:48.601Z,47.68
2022-11-06T12:25:21.125Z,46.94
2022-11-06T12:27:55.048Z,44.98
2022-11-06T12:30:22.820Z,45.44
2022-11-06T12:33:11.202Z,45.05
2022-11-06T12:35:43.071Z,45.47
2022-11-06T12:38:22.112Z,45.37
2022-11-06T12:40:55.054Z,44.88
2022-11-06T12:43:30.195Z,44.79
2022-11-06T12:46:09.760Z,43.46
2022-11-06T12:48:51.283Z,43.22
2022-11-06T12:51:27.325Z,43.89
2022-11-06T12:54:08.920Z,42.52
2022-11-06T12:56:51.125Z,43.16
2022-11-06T12:59:41.967Z,42.56
2022-11-06T13:02:28.571Z,42.77
2022-11-06T13:05:09.226Z,41.89
2022-11-06T13:07:59.855Z,41.52
2022-11-06T13:10:52.615Z,41.96
2022-11-06T13:13:32.626Z,41.65
2022-11-06T13:16:08.910Z,42.12
2022-11-06T13:18:43.048Z,41.65
2022-11-06T13:21:19.111Z,42.06
2022-11-06T13:23:51.559Z,42.64
2022-11-06T13:26:29.501Z,42.42
2022-11-06T13:29:00.185Z,42.52
2022-11-06T13:31:35.929Z,42.37
2022-11-06T13:34:06.202Z,42.77
2022-11-06T13:36:39.738Z,42.82
2022-11-06T13:39:16.471Z,43.16
2022-11-06T13:41:56.038Z,43.47
2022-11-06T13:44:26.707Z,44.05
2022-11-06T13:47:14.000Z,44.69
2022-11-06T13:49:55.851Z,45.02
2022-11-06T13:52:38.642Z,45.38
2022-11-06T13:55:18.052Z,45.40
2022-11-06T13:58:43.418Z,45.88
2022-11-06T14:01:41.758Z,46.41
2022-11-06T14:04:34.706Z,46.38
2022-11-06T14:07:13.815Z,46.67
2022-11-06T14:10:26.020Z,47.28
2022-11-06T14:13:53.456Z,47.78
2022-11-06T14:16:37.570Z,47.79
2022-11-06T14:19:32.792Z,48.11
2022-11-06T14:22:43.000Z,48.29
2022-11-06T14:26:13.364Z,49.01
2022-11-06T14:28:55.959Z,49.23
2022-11-06T14:32:03.629Z,49.28
2022-11-06T14:34:36.819Z,49.34
2022-11-06T14:37:37.301Z,49.88
2022-11-06T14:40:37.788Z,50.00
2022-11-06T14:49:47.794Z,50.73
2022-11-06T14:52:37.249Z,50.86
2022-11-06T14:59:29.804Z,50.72
2022-11-06T15:02:07.444Z,51.29
2022-11-06T15:04:37.664Z,51.32
2022-11-06T15:11:01.684Z,51.36
2022-11-06T15:13:33.492Z,51.75
2022-11-06T15:16:17.201Z,51.77
2022-11-06T15:18:46.679Z,51.88
2022-11-06T15:21:30.945Z,52.04
2022-11-06T15:24:15.412Z,52.06
2022-11-06T15:27:15.512Z,52.47
2022-11-06T15:29:48.329Z,52.30
2022-11-06T15:32:25.483Z,52.48
2022-11-06T15:35:03.640Z,52.74
2022-11-06T15:37:40.000Z,52.64
2022-11-06T15:40:22.977Z,53.12
2022-11-06T15:43:00.715Z,52.73
2022-11-06T15:45:30.764Z,53.05
2022-11-06T15:48:21.147Z,52.96
2022-11-06T15:50:53.293Z,53.36
2022-11-06T15:54:04.089Z,52.93
2022-11-06T15:56:35.027Z,53.30
2022-11-06T15:59:24.123Z,53.57
2022-11-06T16:02:04.903Z,53.77
2022-11-06T16:04:33.576Z,53.49
2022-11-06T16:07:07.665Z,53.67
2022-11-06T16:09:41.657Z,53.75
2022-11-06T16:12:24.898Z,54.30
2022-11-06T16:14:56.422Z,54.21
2022-11-06T16:17:27.360Z,54.40
2022-11-06T16:20:06.262Z,54.66
2022-11-06T16:22:35.197Z,54.94
2022-11-06T16:25:11.139Z,54.51
2022-11-06T16:27:41.983Z,54.51
2022-11-06T16:30:36.421Z,54.87
2022-11-06T16:33:04.967Z,54.73
2022-11-06T16:35:54.999Z,55.15
2022-11-06T16:38:41.039Z,55.60
2022-11-06T16:41:44.907Z,55.63
2022-11-06T16:44:30.738Z,55.71
2022-11-06T16:47:29.826Z,55.92
2022-11-06T16:50:05.009Z,56.08
2022-11-06T16:52:45.046Z,56.10
2022-11-06T16:55:28.490Z,56.33
2022-11-06T16:58:00.089Z,56.06
2022-11-06T17:00:44.429Z,56.38
2022-11-06T17:03:25.937Z,56.96
2022-11-06T17:05:59.573Z,56.52
2022-11-06T17:08:37.669Z,56.66
2022-11-06T17:11:21.811Z,56.36
2022-11-06T17:14:12.110Z,56.29
2022-11-06T17:16:49.665Z,56.78
2022-11-06T17:19:37.671Z,57.03
2022-11-06T17:22:12.921Z,56.94
2022-11-06T17:24:42.170Z,57.15
2022-11-06T17:27:10.183Z,56.61
2022-11-06T17:29:39.121Z,57.38
2022-11-06T17:32:07.365Z,56.74
2022-11-06T17:34:34.886Z,56.87
2022-11-06T17:37:02.854Z,56.96
2022-11-06T17:39:30.492Z,57.76
2022-11-06T17:41:58.075Z,57.33
2022-11-06T17:44:25.648Z,57.49
2022-11-06T17:46:54.602Z,57.34
2022-11-06T17:49:22.283Z,57.32
2022-11-06T17:52:00.094Z,57.67
2022-11-06T17:54:33.472Z,57.05
2022-11-06T17:57:03.127Z,58.32
2022-11-06T17:59:32.826Z,58.40
2022-11-06T18:02:02.067Z,58.47
2022-11-06T18:04:34.203Z,58.82
2022-11-06T18:07:05.599Z,59.00
2022-11-06T18:09:33.206Z,59.61
2022-11-06T18:12:00.836Z,59.73
2022-11-06T18:14:29.133Z,60.26
2022-11-06T18:16:56.588Z,59.62
2022-11-06T18:19:26.285Z,60.42
2022-11-06T18:21:55.067Z,59.71
2022-11-06T18:24:22.749Z,60.16
2022-11-06T18:26:50.268Z,60.78
2022-11-06T18:29:18.181Z,61.07
2022-11-06T18:31:45.708Z,61.43
2022-11-06T18:34:19.857Z,61.11
2022-11-06T18:36:50.049Z,61.30
2022-11-06T18:39:17.993Z,61.67
2022-11-06T18:41:45.511Z,61.69
2022-11-06T18:44:13.100Z,62.18
2022-11-06T18:46:40.569Z,62.33
2022-11-06T18:49:10.579Z,61.90
2022-11-06T18:51:39.728Z,62.00
2022-11-06T18:54:14.116Z,62.47
2022-11-06T18:56:41.998Z,62.43
2022-11-06T18:59:17.693Z,62.82
2022-11-06T19:01:45.606Z,62.46
2022-11-06T19:04:13.993Z,62.34
2022-11-06T19:06:42.874Z,62.71
2022-11-06T19:09:12.050Z,62.80
2022-11-06T19:11:49.749Z,63.09
2022-11-06T19:14:17.522Z,63.09
2022-11-06T19:16:46.786Z,63.12
2022-11-06T19:19:25.167Z,63.34
2022-11-06T19:21:53.928Z,63.44
2022-11-06T19:24:23.161Z,63.77
2022-11-06T19:27:00.756Z,63.46
2022-11-06T19:29:28.606Z,64.04
2022-11-06T19:34:43.695Z,64.53
2022-11-06T19:37:11.201Z,64.21
2022-11-06T19:39:42.569Z,64.69
2022-11-06T19:42:11.781Z,64.13
2022-11-06T19:44:39.317Z,64.92
2022-11-06T19:47:09.756Z,64.74
2022-11-06T19:49:37.261Z,65.13
2022-11-06T19:52:42.785Z,64.64
2022-11-06T19:55:24.703Z,65.54
2022-11-06T19:57:45.082Z,65.54
2022-11-06T20:00:14.457Z,65.25
2022-11-06T20:02:45.115Z,65.65
2022-11-06T20:05:12.794Z,66.64
2022-11-06T20:07:42.954Z,65.90
2022-11-06T20:10:12.230Z,66.08
2022-11-06T20:12:39.895Z,65.88
2022-11-06T20:15:08.210Z,65.87
2022-11-06T20:17:37.318Z,65.88
2022-11-06T20:20:05.830Z,65.88
2022-11-06T20:22:35.386Z,66.05
2022-11-06T20:25:03.054Z,66.48
2022-11-06T20:27:32.500Z,66.64
2022-11-06T20:30:00.174Z,66.56
2022-11-06T20:32:27.901Z,67.34
2022-11-06T20:34:55.702Z,66.54
2022-11-06T20:37:23.682Z,67.50
2022-11-06T20:39:52.086Z,67.17
2022-11-06T20:42:20.180Z,67.25
2022-11-06T20:44:50.140Z,66.82
2022-11-06T20:47:18.533Z,66.67
2022-11-06T20:49:46.782Z,67.20
2022-11-06T20:52:15.597Z,67.46
2022-11-06T20:54:47.519Z,67.40
2022-11-06T20:57:15.825Z,67.01
2022-11-06T20:59:44.093Z,67.17
2022-11-06T21:02:14.596Z,68.79
2022-11-06T21:04:43.004Z,67.53
2022-11-06T21:07:12.730Z,67.74
2022-11-06T21:09:40.697Z,68.54
2022-11-06T21:12:09.202Z,68.73
2022-11-06T21:14:39.349Z,68.55
2022-11-06T21:17:08.710Z,68.04
2022-11-06T21:19:39.160Z,68.33
2022-11-06T21:25:04.914Z,68.39
2022-11-06T21:27:32.959Z,68.60
2022-11-06T21:30:08.790Z,68.60
2022-11-06T21:32:37.839Z,68.26
2022-11-06T21:35:17.730Z,68.84
2022-11-06T21:37:45.399Z,68.83
2022-11-06T21:40:17.172Z,69.04
2022-11-06T21:42:46.309Z,69.45
2022-11-06T21:45:15.904Z,69.01
2022-11-06T21:47:43.729Z,69.08
2022-11-06T21:50:12.900Z,69.71
2022-11-06T21:52:58.013Z,68.96
2022-11-06T21:55:43.509Z,69.90
2022-11-06T21:58:11.108Z,69.55
2022-11-06T22:00:39.889Z,69.49
2022-11-06T22:03:08.946Z,69.63
2022-11-06T22:05:37.801Z,69.75
2022-11-06T22:08:05.894Z,70.07
2022-11-06T22:10:36.174Z,69.59
2022-11-06T22:13:04.409Z,70.19
2022-11-06T22:15:38.599Z,69.85
2022-11-06T22:18:06.272Z,69.92
2022-11-06T22:20:36.546Z,70.00
2022-11-06T22:23:05.700Z,70.38
2022-11-06T22:25:33.456Z,70.70
2022-11-06T22:28:03.617Z,70.73
2022-11-06T22:30:34.377Z,70.93
2022-11-06T22:33:04.016Z,70.63
2022-11-06T22:35:32.781Z,70.75
2022-11-06T22:38:00.604Z,71.38
2022-11-06T22:40:30.868Z,70.70
2022-11-06T22:42:58.556Z,70.96
2022-11-06T22:45:26.192Z,70.88
2022-11-06T22:47:54.759Z,70.91
2022-11-06T22:50:23.261Z,70.51
2022-11-06T22:52:52.133Z,70.35
2022-11-06T22:55:20.367Z,70.51
2022-11-06T22:57:53.803Z,70.97
2022-11-06T23:00:23.451Z,70.68
2022-11-06T23:02:52.198Z,71.01
2022-11-06T23:05:19.771Z,70.76
2022-11-06T23:07:47.630Z,71.01
2022-11-06T23:10:15.762Z,71.18
2022-11-06T23:12:43.249Z,71.59
2022-11-06T23:15:13.765Z,71.14
2022-11-06T23:17:41.497Z,71.57
2022-11-06T23:20:10.250Z,70.89
2022-11-06T23:22:38.163Z,71.58
2022-11-06T23:25:07.308Z,70.91
2022-11-06T23:27:37.394Z,71.19
2022-11-06T23:30:06.644Z,71.07
2022-11-06T23:32:38.350Z,71.17
2022-11-06T23:35:11.713Z,71.98
2022-11-06T23:37:43.222Z,72.01
2022-11-06T23:40:13.108Z,71.70
2022-11-06T23:42:47.616Z,71.97
2022-11-06T23:45:33.009Z,71.50
2022-11-06T23:48:08.561Z,71.81
2022-11-06T23:50:36.551Z,71.23
2022-11-06T23:53:04.649Z,71.78
2022-11-06T23:55:32.146Z,71.74
2022-11-06T23:57:59.869Z,71.49
